createdAt,value
2023-02-05T00:00:20.229Z,12.30
2023-02-05T00:02:48.224Z,13.50
2023-02-05T00:05:15.978Z,10.13
2023-02-05T00:07:43.783Z,12.50
2023-02-05T00:10:11.536Z,10.67
2023-02-05T00:12:39.958Z,7.20
2023-02-05T00:15:08.320Z,8.10
2023-02-05T00:17:37.460Z,6.63
2023-02-05T00:20:06.830Z,6.13
2023-02-05T00:22:34.708Z,7.63
2023-02-05T00:25:02.481Z,7.00
2023-02-05T00:27:30.385Z,8.57
2023-02-05T00:29:58.114Z,8.10
2023-02-05T00:32:25.897Z,8.70
2023-02-05T00:34:53.811Z,5.27
2023-02-05T00:37:21.554Z,6.97
2023-02-05T00:39:49.345Z,6.40
2023-02-05T00:42:17.183Z,7.73
2023-02-05T00:44:44.965Z,9.37
2023-02-05T00:47:12.738Z,8.57
2023-02-05T00:49:40.697Z,7.23
2023-02-05T00:52:08.471Z,9.00
2023-02-05T00:54:36.310Z,8.30
2023-02-05T00:57:04.155Z,6.70
2023-02-05T00:59:31.920Z,5.53
2023-02-05T01:01:59.949Z,7.20
2023-02-05T01:04:27.811Z,6.77
2023-02-05T01:06:55.627Z,6.57
2023-02-05T01:09:23.791Z,6.17
2023-02-05T01:11:51.579Z,7.77
2023-02-05T01:14:19.360Z,8.23
2023-02-05T01:16:47.180Z,7.13
2023-02-05T01:19:14.899Z,10.60
2023-02-05T01:21:42.690Z,5.13
2023-02-05T01:24:10.553Z,10.53
2023-02-05T01:26:38.390Z,7.40
2023-02-05T01:29:06.204Z,7.67
2023-02-05T01:31:34.732Z,7.77
2023-02-05T01:34:02.668Z,8.27
2023-02-05T01:36:30.420Z,5.17
2023-02-05T01:38:58.164Z,7.03
2023-02-05T01:41:26.682Z,10.77
2023-02-05T01:44:19.599Z,9.80
2023-02-05T01:46:48.412Z,9.80
2023-02-05T01:49:29.941Z,12.77
2023-02-05T01:51:58.192Z,11.57
2023-02-05T01:54:27.090Z,8.60
2023-02-05T01:56:59.235Z,11.27
2023-02-05T01:59:29.090Z,11.53
2023-02-05T02:01:57.003Z,11.50
2023-02-05T02:04:40.107Z,10.33
2023-02-05T02:07:09.841Z,11.60
2023-02-05T02:09:37.938Z,10.73
2023-02-05T02:12:06.006Z,10.43
2023-02-05T02:14:33.946Z,6.87
2023-02-05T02:17:01.760Z,8.37
2023-02-05T02:19:55.236Z,4.83
2023-02-05T02:22:58.775Z,10.27
2023-02-05T02:25:55.344Z,7.67
2023-02-05T02:28:27.129Z,6.40
2023-02-05T02:31:26.954Z,6.87
2023-02-05T02:33:59.877Z,4.03
2023-02-05T02:36:31.798Z,9.23
2023-02-05T02:39:32.328Z,10.03
2023-02-05T02:42:05.214Z,9.47
2023-02-05T02:44:42.628Z,7.77
2023-02-05T02:47:19.244Z,6.60
2023-02-05T02:49:53.318Z,9.07
2023-02-05T02:52:21.931Z,7.33
2023-02-05T02:54:50.347Z,7.03
2023-02-05T02:57:18.808Z,9.33
2023-02-05T02:59:47.121Z,6.40
2023-02-05T03:02:17.103Z,8.20
2023-02-05T03:04:51.492Z,6.57
2023-02-05T03:07:22.103Z,6.97
2023-02-05T03:09:59.277Z,8.53
2023-02-05T03:12:27.033Z,7.83
2023-02-05T03:14:54.825Z,7.97
2023-02-05T03:17:22.903Z,4.90
2023-02-05T03:19:54.323Z,9.03
2023-02-05T03:22:22.040Z,8.53
2023-02-05T03:24:49.809Z,6.53
2023-02-05T03:27:17.579Z,9.73
2023-02-05T03:29:48.603Z,8.03
2023-02-05T03:32:41.731Z,6.17
2023-02-05T03:35:21.369Z,8.20
2023-02-05T03:38:21.920Z,10.13
2023-02-05T03:40:55.884Z,8.37
2023-02-05T03:43:47.385Z,7.27
2023-02-05T03:46:46.413Z,5.17
2023-02-05T03:49:32.572Z,10.57
2023-02-05T03:52:18.970Z,7.93
2023-02-05T03:54:49.688Z,7.80
2023-02-05T03:57:30.265Z,9.37
2023-02-05T03:59:58.038Z,9.07
2023-02-05T04:02:25.878Z,9.80
2023-02-05T04:04:53.715Z,7.10
2023-02-05T04:07:21.404Z,8.23
2023-02-05T04:09:49.195Z,8.77
2023-02-05T04:12:16.999Z,6.17
2023-02-05T04:14:44.884Z,9.77
2023-02-05T04:17:13.132Z,8.63
2023-02-05T04:19:42.590Z,8.50
2023-02-05T04:22:10.418Z,12.53
2023-02-05T04:24:38.119Z,15.27
2023-02-05T04:27:06.115Z,23.13
2023-02-05T04:29:33.883Z,14.63
2023-02-05T04:32:01.698Z,17.30
2023-02-05T04:34:29.534Z,18.43
2023-02-05T04:36:57.331Z,16.43
2023-02-05T04:39:25.091Z,24.93
2023-02-05T04:41:52.897Z,50.87
2023-02-05T04:44:20.820Z,38.13
2023-02-05T04:46:48.618Z,56.03
2023-02-05T04:49:16.399Z,61.50
2023-02-05T04:51:44.190Z,38.57
2023-02-05T04:54:11.978Z,51.20
2023-02-05T04:56:40.355Z,91.80
2023-02-05T04:59:08.149Z,110.37
2023-02-05T05:01:36.056Z,77.97
2023-02-05T05:04:03.839Z,48.53
2023-02-05T05:06:32.156Z,47.03
2023-02-05T05:08:59.904Z,42.87
2023-02-05T05:11:27.768Z,32.90
2023-02-05T05:13:55.631Z,45.90
2023-02-05T05:16:23.425Z,12.00
2023-02-05T05:18:52.884Z,19.53
2023-02-05T05:21:20.670Z,23.27
2023-02-05T05:23:48.548Z,21.83
2023-02-05T05:26:16.363Z,22.10
2023-02-05T05:28:44.226Z,13.63
2023-02-05T05:31:14.623Z,13.90
2023-02-05T05:33:42.440Z,12.23
2023-02-05T05:36:10.186Z,10.03
2023-02-05T05:38:37.989Z,9.17
2023-02-05T05:41:24.412Z,8.87
2023-02-05T05:43:53.494Z,7.60
2023-02-05T05:46:26.802Z,7.00
2023-02-05T05:48:56.864Z,7.97
2023-02-05T05:51:25.556Z,7.60
2023-02-05T05:53:53.429Z,6.17
2023-02-05T05:56:21.265Z,6.53
2023-02-05T05:58:49.057Z,6.23
2023-02-05T06:01:18.013Z,5.53
2023-02-05T06:03:45.951Z,7.43
2023-02-05T06:06:14.347Z,6.53
2023-02-05T06:08:42.188Z,6.80
2023-02-05T06:11:10.041Z,6.67
2023-02-05T06:13:37.896Z,6.40
2023-02-05T06:16:06.267Z,8.53
2023-02-05T06:18:34.035Z,6.80
2023-02-05T06:21:03.542Z,9.80
2023-02-05T06:23:31.422Z,7.87
2023-02-05T06:25:59.373Z,7.70
2023-02-05T06:28:27.170Z,7.20
2023-02-05T06:30:55.179Z,7.43
2023-02-05T06:33:23.016Z,8.33
2023-02-05T06:35:50.901Z,7.90
2023-02-05T06:38:18.753Z,7.73
2023-02-05T06:40:46.651Z,7.33
2023-02-05T06:43:14.416Z,5.90
2023-02-05T06:45:42.162Z,8.43
2023-02-05T06:48:10.076Z,7.47
2023-02-05T06:50:37.871Z,8.40
2023-02-05T06:53:05.664Z,8.07
2023-02-05T06:55:33.885Z,8.77
2023-02-05T06:58:01.819Z,9.83
2023-02-05T07:00:31.504Z,7.77
2023-02-05T07:03:00.100Z,9.77
2023-02-05T07:05:27.927Z,9.60
2023-02-05T07:07:55.735Z,8.33
2023-02-05T07:10:23.520Z,8.83
2023-02-05T07:12:51.257Z,6.80
2023-02-05T07:15:19.298Z,11.40
2023-02-05T07:17:47.192Z,11.50
2023-02-05T07:20:14.980Z,8.73
2023-02-05T07:22:43.197Z,9.30
2023-02-05T07:25:11.068Z,9.90
2023-02-05T07:27:39.048Z,9.37
2023-02-05T07:30:07.581Z,8.03
2023-02-05T07:32:35.388Z,10.37
2023-02-05T07:35:03.244Z,10.90
2023-02-05T07:37:30.980Z,12.47
2023-02-05T07:39:58.882Z,9.47
2023-02-05T07:42:26.827Z,11.13
2023-02-05T07:44:54.587Z,11.73
2023-02-05T07:47:22.338Z,9.63
2023-02-05T07:49:50.306Z,9.60
2023-02-05T07:52:18.155Z,10.93
2023-02-05T07:54:45.961Z,10.80
2023-02-05T07:57:13.853Z,11.97
2023-02-05T07:59:41.675Z,12.67
2023-02-05T08:02:11.255Z,11.63
2023-02-05T08:04:39.093Z,10.47
2023-02-05T08:07:07.086Z,10.50
2023-02-05T08:09:35.418Z,9.03
2023-02-05T08:12:03.229Z,9.43
2023-02-05T08:14:32.387Z,10.23
2023-02-05T08:17:00.472Z,11.00
2023-02-05T08:19:28.359Z,8.60
2023-02-05T08:21:56.349Z,9.37
2023-02-05T08:24:24.188Z,9.40
2023-02-05T08:26:52.010Z,8.70
2023-02-05T08:29:27.595Z,10.97
2023-02-05T08:31:55.457Z,8.77
2023-02-05T08:34:23.386Z,10.27
2023-02-05T08:36:51.177Z,9.27
2023-02-05T08:39:27.199Z,16.23
2023-02-05T08:41:59.869Z,11.40
2023-02-05T08:44:33.198Z,9.73
2023-02-05T08:47:01.155Z,8.03
2023-02-05T08:49:29.095Z,9.80
2023-02-05T08:51:57.101Z,8.87
2023-02-05T08:54:25.374Z,8.63
2023-02-05T08:56:53.425Z,8.33
2023-02-05T08:59:25.991Z,11.80
2023-02-05T09:01:53.851Z,10.17
2023-02-05T09:04:22.579Z,10.77
2023-02-05T09:06:50.537Z,8.87
2023-02-05T09:09:18.520Z,9.20
2023-02-05T09:11:53.843Z,11.80
2023-02-05T09:14:21.707Z,9.10
2023-02-05T09:16:52.343Z,9.43
2023-02-05T09:19:20.348Z,12.07
2023-02-05T09:21:48.300Z,9.57
2023-02-05T09:24:16.226Z,10.23
2023-02-05T09:26:44.053Z,10.37
2023-02-05T09:29:11.849Z,11.07
2023-02-05T09:31:39.722Z,11.13
2023-02-05T09:34:07.648Z,9.80
2023-02-05T09:36:35.450Z,9.47
2023-02-05T09:39:14.092Z,8.93
2023-02-05T09:42:06.396Z,10.27
2023-02-05T09:44:46.146Z,9.47
2023-02-05T09:47:17.761Z,10.40
2023-02-05T09:49:48.367Z,11.20
2023-02-05T09:52:24.289Z,10.40
2023-02-05T09:54:54.187Z,8.57
2023-02-05T09:57:39.651Z,9.30
2023-02-05T10:00:21.875Z,10.07
2023-02-05T10:02:54.876Z,10.93
2023-02-05T10:05:22.826Z,8.00
2023-02-05T10:08:11.244Z,9.57
2023-02-05T10:10:45.524Z,10.57
2023-02-05T10:13:30.377Z,14.77
2023-02-05T10:16:14.089Z,10.10
2023-02-05T10:18:44.938Z,11.87
2023-02-05T10:21:21.535Z,9.93
2023-02-05T10:24:16.778Z,11.00
2023-02-05T10:26:48.010Z,8.03
2023-02-05T10:29:24.945Z,9.33
2023-02-05T10:32:11.463Z,11.10
2023-02-05T10:34:57.346Z,9.03
2023-02-05T10:37:49.868Z,10.67
2023-02-05T10:40:36.476Z,11.07
2023-02-05T10:43:22.561Z,11.70
2023-02-05T10:45:50.657Z,10.67
2023-02-05T10:48:30.487Z,12.37
2023-02-05T10:51:05.743Z,8.77
2023-02-05T10:53:33.844Z,13.63
2023-02-05T10:56:01.807Z,10.33
2023-02-05T10:58:48.886Z,9.23
2023-02-05T11:01:42.759Z,10.27
2023-02-05T11:04:17.516Z,8.27
2023-02-05T11:06:52.830Z,8.57
2023-02-05T11:09:26.777Z,8.73
2023-02-05T11:11:55.984Z,10.13
2023-02-05T11:14:29.477Z,8.17
2023-02-05T11:16:57.346Z,9.07
2023-02-05T11:19:29.303Z,9.27
2023-02-05T11:21:58.931Z,10.87
2023-02-05T11:24:32.020Z,9.73
2023-02-05T11:27:17.865Z,8.20
2023-02-05T11:29:45.676Z,9.90
2023-02-05T11:32:39.952Z,8.63
2023-02-05T11:35:36.961Z,8.87
2023-02-05T11:38:09.522Z,10.97
2023-02-05T11:40:37.682Z,9.90
2023-02-05T11:43:30.232Z,12.23
2023-02-05T11:45:58.933Z,10.10
2023-02-05T11:48:32.489Z,10.87
2023-02-05T11:51:01.822Z,9.60
2023-02-05T11:53:29.685Z,9.97
2023-02-05T11:56:02.223Z,11.83
2023-02-05T11:58:37.577Z,11.17
2023-02-05T12:01:22.724Z,10.40
2023-02-05T12:04:18.487Z,9.77
2023-02-05T12:06:53.068Z,8.43
2023-02-05T12:09:22.443Z,9.97
2023-02-05T12:12:09.716Z,11.87
2023-02-05T12:15:04.016Z,9.63
2023-02-05T12:17:45.058Z,9.80
2023-02-05T12:20:37.247Z,10.77
2023-02-05T12:23:19.135Z,10.80
2023-02-05T12:26:04.107Z,12.17
2023-02-05T12:28:42.725Z,10.73
2023-02-05T12:31:50.102Z,9.77
2023-02-05T12:34:38.049Z,10.57
2023-02-05T12:37:17.566Z,12.37
2023-02-05T12:39:55.002Z,12.13
2023-02-05T12:42:37.478Z,9.30
2023-02-05T12:45:29.626Z,14.07
2023-02-05T12:47:57.745Z,9.83
2023-02-05T12:50:54.694Z,10.30
2023-02-05T12:53:32.241Z,11.30
2023-02-05T12:56:54.089Z,10.67
2023-02-05T12:59:45.143Z,11.07
2023-02-05T13:02:36.151Z,8.83
2023-02-05T13:05:25.351Z,11.33
2023-02-05T13:08:04.210Z,8.93
2023-02-05T13:10:59.969Z,10.17
2023-02-05T13:14:03.471Z,10.70
2023-02-05T13:16:51.038Z,9.73
2023-02-05T13:19:42.301Z,14.93
2023-02-05T13:22:42.997Z,11.87
2023-02-05T13:26:01.532Z,12.47
2023-02-05T13:28:44.472Z,12.77
2023-02-05T13:31:37.732Z,9.57
2023-02-05T13:34:19.075Z,10.77
2023-02-05T13:37:10.158Z,10.83
2023-02-05T13:40:02.305Z,7.57
2023-02-05T13:42:48.451Z,9.27
2023-02-05T13:45:41.110Z,5.77
2023-02-05T13:48:37.598Z,10.93
2023-02-05T13:51:36.922Z,13.50
2023-02-05T13:55:02.083Z,12.97
2023-02-05T13:58:15.328Z,8.93
2023-02-05T14:00:44.564Z,13.43
2023-02-05T14:03:37.360Z,7.93
2023-02-05T14:06:16.706Z,9.47
2023-02-05T14:08:44.600Z,7.27
2023-02-05T14:11:17.190Z,8.03
2023-02-05T14:14:03.612Z,10.97
2023-02-05T14:16:48.914Z,8.90
2023-02-05T14:20:10.937Z,8.50
2023-02-05T14:22:45.250Z,10.00
2023-02-05T14:25:39.275Z,10.13
2023-02-05T14:28:10.054Z,10.10
2023-02-05T14:30:46.732Z,13.80
2023-02-05T14:33:36.723Z,6.23
2023-02-05T14:36:21.086Z,6.53
2023-02-05T14:39:02.085Z,11.23
2023-02-05T14:41:47.106Z,9.60
2023-02-05T14:44:17.977Z,11.63
2023-02-05T14:47:01.026Z,8.47
2023-02-05T14:49:34.792Z,10.70
2023-02-05T14:52:08.625Z,6.73
2023-02-05T14:54:49.999Z,7.30
2023-02-05T14:57:27.890Z,5.70
2023-02-05T14:59:59.553Z,8.17
2023-02-05T15:02:58.475Z,8.70
2023-02-05T15:05:32.281Z,8.80
2023-02-05T15:08:23.291Z,11.00
2023-02-05T15:10:58.457Z,9.70
2023-02-05T15:13:27.445Z,10.57
2023-02-05T15:16:14.278Z,8.10
2023-02-05T15:18:50.357Z,7.30
2023-02-05T15:21:24.852Z,12.10
2023-02-05T15:23:54.444Z,7.50
2023-02-05T15:26:30.349Z,9.10
2023-02-05T15:28:59.545Z,8.43
2023-02-05T15:31:48.294Z,8.43
2023-02-05T15:34:30.067Z,7.63
2023-02-05T15:37:07.917Z,7.27
2023-02-05T15:39:50.332Z,8.90
2023-02-05T15:42:20.470Z,6.37
2023-02-05T15:44:48.334Z,5.93
2023-02-05T15:47:21.781Z,6.23
2023-02-05T15:49:51.813Z,8.77
2023-02-05T15:52:25.974Z,7.40
2023-02-05T15:54:56.417Z,9.17
2023-02-05T15:57:31.321Z,10.47
2023-02-05T16:00:00.597Z,9.77
2023-02-05T16:02:29.896Z,8.33
2023-02-05T16:05:02.636Z,8.40
2023-02-05T16:07:32.429Z,7.70
2023-02-05T16:10:02.100Z,6.80
2023-02-05T16:12:31.678Z,8.70
2023-02-05T16:15:07.296Z,8.43
2023-02-05T16:17:45.398Z,6.80
2023-02-05T16:20:17.818Z,7.10
2023-02-05T16:22:47.429Z,9.17
2023-02-05T16:25:50.995Z,7.33
2023-02-05T16:28:22.743Z,9.10
2023-02-05T16:30:50.674Z,7.60
2023-02-05T16:33:49.052Z,5.23
2023-02-05T16:36:20.690Z,5.50
2023-02-05T16:39:08.678Z,7.90
2023-02-05T16:41:38.372Z,5.93
2023-02-05T16:44:09.355Z,5.70
2023-02-05T16:46:37.760Z,5.50
2023-02-05T16:49:29.367Z,5.33
2023-02-05T16:51:57.533Z,6.23
2023-02-05T16:54:30.750Z,6.17
2023-02-05T16:57:02.193Z,5.23
2023-02-05T16:59:40.738Z,6.00
2023-02-05T17:02:14.100Z,5.20
2023-02-05T17:04:42.053Z,5.70
2023-02-05T17:07:20.091Z,6.23
2023-02-05T17:09:48.088Z,5.73
2023-02-05T17:12:34.137Z,5.50
2023-02-05T17:15:05.756Z,5.70
2023-02-05T17:17:33.864Z,5.53
2023-02-05T17:20:05.505Z,6.60
2023-02-05T17:22:34.226Z,8.03
2023-02-05T17:25:02.411Z,5.60
2023-02-05T17:27:35.224Z,5.47
2023-02-05T17:30:03.224Z,7.57
2023-02-05T17:32:32.143Z,6.40
2023-02-05T17:35:01.352Z,6.63
2023-02-05T17:37:29.320Z,5.87
2023-02-05T17:39:58.869Z,7.00
2023-02-05T17:42:35.614Z,6.53
2023-02-05T17:45:03.539Z,5.50
2023-02-05T17:47:31.387Z,5.93
2023-02-05T17:49:59.381Z,5.47
2023-02-05T17:52:33.151Z,6.70
2023-02-05T17:55:01.080Z,8.47
2023-02-05T17:57:28.980Z,6.20
2023-02-05T17:59:57.908Z,5.60
2023-02-05T18:02:25.926Z,8.40
2023-02-05T18:04:54.084Z,6.10
2023-02-05T18:07:30.685Z,6.90
2023-02-05T18:10:00.617Z,6.90
2023-02-05T18:12:28.509Z,6.33
2023-02-05T18:14:56.403Z,5.30
2023-02-05T18:17:24.277Z,7.23
2023-02-05T18:19:52.738Z,6.60
2023-02-05T18:22:20.658Z,8.00
2023-02-05T18:24:48.620Z,9.07
2023-02-05T18:27:16.454Z,11.53
2023-02-05T18:29:44.351Z,8.37
2023-02-05T18:32:12.351Z,9.30
2023-02-05T18:34:41.170Z,7.63
2023-02-05T18:37:08.989Z,8.17
2023-02-05T18:39:37.080Z,9.37
2023-02-05T18:42:05.316Z,7.60
2023-02-05T18:44:33.264Z,9.83
2023-02-05T18:47:01.195Z,7.43
2023-02-05T18:49:29.127Z,9.40
2023-02-05T18:51:57.211Z,9.97
2023-02-05T18:54:25.280Z,9.33
2023-02-05T18:56:55.785Z,12.37
2023-02-05T18:59:25.290Z,9.73
2023-02-05T19:01:53.216Z,10.03
2023-02-05T19:04:21.994Z,11.73
2023-02-05T19:06:53.688Z,10.70
2023-02-05T19:09:23.006Z,8.57
2023-02-05T19:11:51.077Z,9.67
2023-02-05T19:14:20.092Z,9.70
2023-02-05T19:16:48.432Z,9.17
2023-02-05T19:19:26.532Z,11.93
2023-02-05T19:21:55.483Z,14.60
2023-02-05T19:24:23.287Z,10.40
2023-02-05T19:26:52.126Z,9.93
2023-02-05T19:29:20.959Z,11.53
2023-02-05T19:31:49.168Z,9.30
2023-02-05T19:34:17.355Z,9.43
2023-02-05T19:36:45.274Z,10.13
2023-02-05T19:39:15.190Z,10.07
2023-02-05T19:41:45.401Z,14.03
2023-02-05T19:44:14.517Z,11.30
2023-02-05T19:46:45.339Z,10.87
2023-02-05T19:49:15.761Z,12.63
2023-02-05T19:51:51.332Z,10.57
2023-02-05T19:54:21.464Z,10.50
2023-02-05T19:56:50.014Z,10.27
2023-02-05T19:59:20.976Z,8.97
2023-02-05T20:01:49.867Z,9.70
2023-02-05T20:04:19.595Z,12.63
2023-02-05T20:06:47.816Z,10.13
2023-02-05T20:09:16.450Z,13.43
2023-02-05T20:11:46.389Z,9.30
2023-02-05T20:14:14.352Z,15.23
2023-02-05T20:16:42.273Z,9.53
2023-02-05T20:19:11.386Z,9.37
2023-02-05T20:21:39.798Z,11.07
2023-02-05T20:24:08.617Z,8.57
2023-02-05T20:26:37.215Z,8.73
2023-02-05T20:29:23.671Z,9.83
2023-02-05T20:31:52.612Z,8.47
2023-02-05T20:34:26.758Z,11.53
2023-02-05T20:36:59.673Z,7.47
2023-02-05T20:39:31.359Z,8.87
2023-02-05T20:41:59.735Z,10.57
2023-02-05T20:44:33.211Z,8.47
2023-02-05T20:47:01.414Z,10.47
2023-02-05T20:49:29.605Z,7.77
2023-02-05T20:51:57.529Z,9.03
2023-02-05T20:54:25.453Z,7.63
2023-02-05T20:56:53.494Z,10.23
2023-02-05T20:59:21.452Z,8.80
2023-02-05T21:01:49.460Z,9.93
2023-02-05T21:04:17.386Z,10.80
2023-02-05T21:06:45.307Z,9.17
2023-02-05T21:09:13.040Z,11.30
2023-02-05T21:11:41.297Z,11.40
2023-02-05T21:14:09.499Z,9.23
2023-02-05T21:16:37.754Z,9.70
2023-02-05T21:19:06.978Z,7.10
2023-02-05T21:21:36.131Z,7.93
2023-02-05T21:24:10.537Z,6.93
2023-02-05T21:26:42.940Z,8.03
2023-02-05T21:29:15.943Z,7.87
2023-02-05T21:31:48.827Z,6.23
2023-02-05T21:34:18.974Z,8.13
2023-02-05T21:36:48.428Z,8.00
2023-02-05T21:39:17.328Z,7.70
2023-02-05T21:41:46.679Z,9.93
2023-02-05T21:44:14.618Z,7.70
2023-02-05T21:46:42.509Z,10.80
2023-02-05T21:49:11.429Z,12.50
2023-02-05T21:51:39.248Z,10.33
2023-02-05T21:54:07.440Z,12.63
2023-02-05T21:56:37.374Z,11.73
2023-02-05T21:59:05.414Z,13.17
2023-02-05T22:01:34.737Z,10.77
2023-02-05T22:04:04.365Z,10.20
2023-02-05T22:06:33.190Z,8.17
2023-02-05T22:09:01.579Z,9.90
2023-02-05T22:11:29.646Z,9.37
2023-02-05T22:13:57.817Z,11.03
2023-02-05T22:16:27.146Z,10.53
2023-02-05T22:18:55.136Z,8.03
2023-02-05T22:21:33.212Z,9.37
2023-02-05T22:24:01.983Z,7.13
2023-02-05T22:26:34.568Z,8.77
2023-02-05T22:29:02.766Z,8.47
2023-02-05T22:31:30.844Z,7.47
2023-02-05T22:33:58.838Z,8.87
2023-02-05T22:36:28.916Z,7.93
2023-02-05T22:38:57.055Z,8.13
2023-02-05T22:41:33.395Z,6.60
2023-02-05T22:44:01.694Z,9.13
2023-02-05T22:46:31.289Z,6.60
2023-02-05T22:49:00.281Z,5.57
2023-02-05T22:51:30.276Z,4.93
2023-02-05T22:53:58.265Z,5.07
2023-02-05T22:56:26.305Z,4.73
2023-02-05T22:58:54.396Z,3.97
2023-02-05T23:01:27.084Z,3.10
2023-02-05T23:03:55.293Z,3.80
2023-02-05T23:06:29.849Z,4.33
2023-02-05T23:08:59.200Z,3.33
2023-02-05T23:11:27.578Z,3.43
2023-02-05T23:13:55.724Z,3.17
2023-02-05T23:16:25.442Z,4.03
2023-02-05T23:18:53.954Z,3.60
2023-02-05T23:21:24.370Z,3.37
2023-02-05T23:23:52.454Z,3.50
2023-02-05T23:26:25.487Z,4.77
2023-02-05T23:28:53.903Z,4.80
2023-02-05T23:31:22.141Z,3.67
2023-02-05T23:33:50.265Z,4.10
2023-02-05T23:36:18.354Z,4.27
2023-02-05T23:38:46.202Z,5.00
2023-02-05T23:41:14.261Z,3.77
2023-02-05T23:43:42.084Z,3.83
2023-02-05T23:46:09.947Z,4.20
2023-02-05T23:48:37.812Z,4.53
2023-02-05T23:51:05.625Z,3.77
2023-02-05T23:53:33.445Z,3.60
2023-02-05T23:56:01.274Z,4.20
2023-02-05T23:58:29.159Z,4.80
